07:34
Airports
History
Links
Donate
Help keep this website running!
PayPal
Bitcoin
This page is community maintained. The information is intended for PC simulator navigation or reference.
Always use approved charts for navigation.
VEBD
BAGDOGRA
BAGDOGRA (VEBD)
Bagdogra, West Bengal, India (734421)
(C)
Lat/Lng:26° 40' 52.35" N / 88° 19' 42.84" E
26.681207 / 88.328567
Elevation:412'ft / 126mMSL
ID / ICAO:VEBD
Runways:1
Longest:18-36
Asphalt 2,752m / 9,029ft
Controlled:Yes
METAR11:30 GMT 2017-08-02
Altimeter: 29.47
Visibility: 3.7 statute miles
Wind: 3 knots (from 150°)
Temp: 32°c / 90°f
Humidity: 79.5%

METAR: VEBD 021130Z 15003KT 6000 FEW015 SCT020 FEW030TCU BKN090 32/28 Q0998 TEMPO -RA

(Powered by phpweather)
Airport Radio Frequencies
Tower: 123.5
Approach: 119.7, 122.7
Nearby VORs <50NM
Nearby NDBs
Runway 18 / 36
Dimensions:2752 x 45.7m 9029' x 150'ft
Surface:Asphalt
Edge Lights:High intensity
Runway 18 [A]Runway 36 [B]
Heading:181°TH 001°TH
Lat:
Lng:
26° 41' 36.82"N
88° 19' 44.11"E
26° 40' 7.87"N
88° 19' 41.57"E
User Notes and Comments
26° 40' 52.35" N / 88° 19' 42.84" E
Distance To
Airport ID:
Nearby Airports
(C) BHADRAPUR / CHANDRAGADHI 17.2 NM
VNCG WSW 243°
(C) Taplejung / Suketar 60.5 NM
VNTJ NW 319°
(U) HASHIMARA 64.2 NM
VE44 E 88°
(C) BIRATNAGAR 67.2 NM
VNVT WSW 258°
(C) SAIDPUR 73.2 NM
VGSD SSE 150°
(C) COOCH BEHAR 74.5 NM
VECO ESE 108°
4 Tumlingtar 82.3 NM
VNTR WNW 302°
VFR Chart
Flight Planning at SkyVector.com